Robijn — PBEJ — position and weather

sailwx.info

Track history (hours):
 
Tides and Currents Weather Stations Pressure Air Temp Water Temp Dewpoint Dewpoint Depression Visibility Wind Speed Wind Dir Waves Ship Positions

Robijn

Last reported at 2016-Jul-27 23:15 UTC. Time now 2016-Jul-28 08:33 UTC.
Position N 55°42' E 015°34'.

Length 90 m; draft 5.1 m.

Type: Cargo ship. MMSI: 245909000.

Date/timePositionNaut miles runAvg speedWind from/ knotsBaromVisibWave heightAir tempDewpointWater temp
2016-Jul-27 23:15N 55°42' E 015°34'7 9.4
2016-Jul-27 22:29N 55°38' E 015°23'9 9.3
2016-Jul-27 21:33N 55°34' E 015°10'9 9.2
2016-Jul-27 20:33N 55°29' E 014°56'9 9.3
2016-Jul-27 19:33N 55°24' E 014°42'9 9.3
2016-Jul-27 18:34N 55°17' E 014°31'9 9.4
2016-Jul-27 17:33N 55°11' E 014°18'9 9.4
2016-Jul-27 16:34N 55°11' E 014°02'9 9.0
2016-Jul-27 15:33N 55°11' E 013°46'9 8.9
2016-Jul-27 14:31N 55°12' E 013°30'8 8.8
2016-Jul-27 13:33N 55°13' E 013°15'9 8.8
2016-Jul-27 12:33N 55°14' E 012°60'9 8.7
2016-Jul-27 11:34N 55°17' E 012°45'7 7.2
2016-Jul-27 10:33N 55°23' E 012°39'9 8.6
2016-Jul-27 09:33N 55°31' E 012°42'9 8.5
2016-Jul-27 08:33N 55°40' E 012°41'9 8.9
2016-Jul-27 07:33N 55°49' E 012°41'9 8.7
2016-Jul-27 06:33N 55°57' E 012°40'8 8.3
2016-Jul-27 05:33N 56°05' E 012°34'10 9.5
2016-Jul-27 04:33N 56°11' E 012°21'27 8.9
2016-Jul-27 01:34N 56°34' E 011°57'10 9.6
2016-Jul-27 00:33N 56°43' E 011°53'45 1.3
2016-Jul-25 15:03N 56°45' E 010°30'0 0.0
2016-Jul-25 14:33N 56°45' E 010°30'0 0.0
2016-Jul-25 13:33N 56°45' E 010°30'0 0.0
2016-Jul-25 12:33N 56°45' E 010°30'0 0.0
2016-Jul-25 11:33N 56°45' E 010°30'0 0.0
2016-Jul-25 10:18N 56°45' E 010°30'0 0.0
2016-Jul-25 09:33N 56°45' E 010°30'0 0.0
2016-Jul-25 08:30N 56°45' E 010°30'0 0.0
2016-Jul-25 07:33N 56°45' E 010°31'3 2.8
2016-Jul-25 06:33N 56°45' E 010°36'7 7.3
2016-Jul-25 05:33N 56°47' E 010°49'7 6.5
2016-Jul-25 04:33N 56°50' E 010°59'7 7.0
2016-Jul-25 03:33N 56°55' E 011°08'7 7.5
2016-Jul-25 02:33N 57°00' E 011°18'8 7.6
2016-Jul-25 01:33N 57°06' E 011°26'8 7.6
2016-Jul-25 00:33N 57°13' E 011°33'9 9.4
2016-Jul-24 23:33N 57°22' E 011°27'9 8.8
2016-Jul-24 22:33N 57°30' E 011°19'9 9.2
2016-Jul-24 21:33N 57°36' E 011°06'9 9.3
2016-Jul-24 20:33N 57°42' E 010°54'9 9.1
2016-Jul-24 19:33N 57°47' E 010°40'1010.0
2016-Jul-24 18:33N 57°46' E 010°21'90 9.0
2016-Jul-24 08:33N 56°54' E 008°04'11 9.4
2016-Jul-24 07:26N 56°45' E 007°55'65 9.3
2016-Jul-24 00:26N 55°48' E 006°60'8 8.9
2016-Jul-23 23:33N 55°41' E 006°53'12 9.1
2016-Jul-23 22:15N 55°31' E 006°42'8 9.3
2016-Jul-23 21:25N 55°24' E 006°35'9 9.2
2016-Jul-23 20:29N 55°16' E 006°28'37 9.2
2016-Jul-23 16:30N 54°40' E 006°17'1110.2
2016-Jul-23 15:25N 54°29' E 006°18'910.2
2016-Jul-23 14:32N 54°20' E 006°17'1010.6
2016-Jul-23 13:33N 54°10' E 006°19'1110.6
2016-Jul-23 12:33N 53°59' E 006°19'1110.8
2016-Jul-23 11:33N 53°48' E 006°20'1010.3
2016-Jul-23 10:33N 53°38' E 006°21'9 9.3
2016-Jul-23 09:33N 53°35' E 006°36'9 9.1
2016-Jul-23 08:33N 53°30' E 006°49'1010.2
2016-Jul-23 07:33N 53°22' E 006°59'3 2.6
2016-Jul-23 06:32N 53°20' E 006°56'0 0.0
2016-Jul-23 04:26N 53°20' E 006°56'0 0.0
2016-Jul-23 03:32N 53°20' E 006°56'0 0.0
2016-Jul-23 02:26N 53°20' E 006°56'0 0.0
2016-Jul-23 01:32N 53°20' E 006°56'0 0.0
2016-Jul-23 00:32N 53°20' E 006°56'0 0.0
2016-Jul-22 23:32N 53°20' E 006°56'0 0.0
2016-Jul-22 22:32N 53°20' E 006°56'0 0.0
2016-Jul-22 21:32N 53°20' E 006°56'0 0.0
2016-Jul-22 20:32N 53°20' E 006°56'0 0.0
2016-Jul-22 19:32N 53°20' E 006°56'0 0.0
2016-Jul-22 18:32N 53°20' E 006°56'0 0.0
2016-Jul-22 17:32N 53°20' E 006°56'0 0.0
2016-Jul-22 16:32N 53°20' E 006°56'0 0.0
2016-Jul-22 15:32N 53°20' E 006°56'0 0.0
2016-Jul-22 14:32N 53°20' E 006°56'0 0.0
2016-Jul-22 13:32N 53°20' E 006°56'0 0.0
2016-Jul-22 12:29N 53°20' E 006°56'0 0.0
2016-Jul-22 11:32N 53°20' E 006°56'0 0.0
2016-Jul-22 10:32N 53°20' E 006°56'0 0.0
2016-Jul-22 09:32N 53°20' E 006°56'0 0.0
2016-Jul-22 08:32N 53°20' E 006°56'0 0.0
2016-Jul-22 07:32N 53°20' E 006°56'0 0.0
2016-Jul-22 04:29N 53°20' E 006°56'0 0.0
2016-Jul-22 03:32N 53°20' E 006°56'0 0.0
2016-Jul-22 02:32N 53°20' E 006°56'0 0.0
2016-Jul-22 01:32N 53°20' E 006°56'0 0.0
2016-Jul-22 00:32N 53°20' E 006°56'0 0.0
2016-Jul-21 23:32N 53°20' E 006°56'0 0.0
2016-Jul-21 22:32N 53°20' E 006°56'0 0.0
2016-Jul-21 21:32N 53°20' E 006°56'0 0.0
2016-Jul-21 20:32N 53°20' E 006°56'0 0.0
2016-Jul-21 19:32N 53°20' E 006°56'0 0.0
2016-Jul-21 18:32N 53°20' E 006°56'0 0.0
2016-Jul-21 17:32N 53°20' E 006°56'0 0.0
2016-Jul-21 16:32N 53°20' E 006°56'0 0.0
2016-Jul-21 15:32N 53°20' E 006°56'0 0.0
2016-Jul-21 14:32N 53°20' E 006°56'0 0.0
2016-Jul-21 13:32N 53°20' E 006°56'0 0.0
2016-Jul-21 12:32N 53°20' E 006°56'0 0.0
2016-Jul-21 11:32N 53°20' E 006°56'0 0.0
2016-Jul-21 10:32N 53°20' E 006°56'0 0.0
2016-Jul-21 09:32N 53°20' E 006°56'0 0.0
2016-Jul-21 08:32N 53°20' E 006°56'0 0.0
2016-Jul-21 07:32N 53°20' E 006°56'0 0.0
2016-Jul-21 06:32N 53°20' E 006°56'0 0.0
2016-Jul-21 05:32N 53°20' E 006°56'0 0.0
2016-Jul-21 04:29N 53°20' E 006°56'0 0.0
2016-Jul-21 03:32N 53°20' E 006°56'0 0.0
2016-Jul-21 02:32N 53°20' E 006°56'0 0.0
2016-Jul-21 01:32N 53°20' E 006°56'0 0.0
2016-Jul-21 00:32N 53°20' E 006°56'0 0.0
2016-Jul-20 23:32N 53°20' E 006°56'0 0.0
2016-Jul-20 22:32N 53°20' E 006°56'0 0.0
2016-Jul-20 21:32N 53°20' E 006°56'0 0.0
2016-Jul-20 20:32N 53°20' E 006°56'0 0.0
2016-Jul-20 19:32N 53°20' E 006°56'0 0.0
2016-Jul-20 18:32N 53°20' E 006°56'0 0.0
2016-Jul-20 17:32N 53°20' E 006°56'0 0.0
2016-Jul-20 16:32N 53°20' E 006°56'0 0.0
2016-Jul-20 15:32N 53°20' E 006°56'0 0.0
2016-Jul-20 14:31N 53°20' E 006°56'0 0.0
2016-Jul-20 13:28N 53°20' E 006°56'0 0.0
2016-Jul-20 12:31N 53°20' E 006°56'0 0.0
2016-Jul-20 11:31N 53°20' E 006°56'0 0.0
2016-Jul-20 10:31N 53°20' E 006°56'0 0.0
2016-Jul-20 09:31N 53°20' E 006°56'0 0.0
2016-Jul-20 08:31N 53°20' E 006°56'0 0.0
2016-Jul-20 07:31N 53°20' E 006°56'0 0.0
2016-Jul-20 06:31N 53°20' E 006°56'0 0.0
2016-Jul-20 05:31N 53°20' E 006°56'0 0.0
2016-Jul-20 04:31N 53°20' E 006°56'0 0.0
2016-Jul-20 03:31N 53°20' E 006°56'0 0.0
2016-Jul-20 02:28N 53°20' E 006°56'0 0.0
2016-Jul-20 01:31N 53°20' E 006°56'0 0.0
2016-Jul-20 00:31N 53°20' E 006°56'0 0.0
2016-Jul-19 23:31N 53°20' E 006°56'0 0.0
2016-Jul-19 22:32N 53°20' E 006°56'0 0.0
2016-Jul-19 21:31N 53°20' E 006°56'0 0.0
2016-Jul-19 20:31N 53°20' E 006°56'0 0.0
2016-Jul-19 19:31N 53°20' E 006°56'0 0.0
2016-Jul-19 18:31N 53°20' E 006°56'0 0.0
2016-Jul-19 17:25N 53°20' E 006°56'0 0.0
2016-Jul-19 16:31N 53°20' E 006°56'0 0.0
2016-Jul-19 15:31N 53°20' E 006°56'0 0.0
2016-Jul-19 14:31N 53°20' E 006°56'0 0.0
2016-Jul-19 13:31N 53°20' E 006°56'0 0.0
2016-Jul-19 12:28N 53°20' E 006°56'0 0.0
2016-Jul-19 11:31N 53°20' E 006°56'0 0.0
2016-Jul-19 10:31N 53°20' E 006°56'0 0.0
2016-Jul-19 09:31N 53°20' E 006°56'0 0.0
2016-Jul-19 08:31N 53°20' E 006°56'0 0.0
2016-Jul-19 07:31N 53°20' E 006°56'0 0.0
2016-Jul-19 04:22N 53°20' E 006°56'0 0.0
2016-Jul-19 03:28N 53°20' E 006°56'0 0.0
2016-Jul-19 02:31N 53°20' E 006°56'0 0.0
2016-Jul-19 01:32N 53°20' E 006°56'0 0.0
2016-Jul-19 00:31N 53°20' E 006°56'0 0.0
2016-Jul-18 23:31N 53°20' E 006°56'0 0.0
2016-Jul-18 22:31N 53°20' E 006°56'0 0.0
2016-Jul-18 21:31N 53°20' E 006°56'0 0.0
2016-Jul-18 20:31N 53°20' E 006°56'0 0.0
2016-Jul-18 19:31N 53°20' E 006°56'0 0.0
2016-Jul-18 18:26N 53°20' E 006°56'0 0.0
2016-Jul-18 17:29N 53°20' E 006°56'0 0.0
2016-Jul-18 16:29N 53°20' E 006°56'0 0.0
2016-Jul-18 15:29N 53°20' E 006°56'0 0.0
2016-Jul-18 14:23N 53°20' E 006°56'0 0.0
2016-Jul-18 13:32N 53°20' E 006°56'0 0.0
2016-Jul-18 12:23N 53°20' E 006°56'0 0.0
2016-Jul-18 11:31N 53°20' E 006°56'0 0.0
2016-Jul-18 10:31N 53°20' E 006°56'0 0.0
2016-Jul-18 09:31N 53°20' E 006°56'0 0.0
2016-Jul-18 08:31N 53°20' E 006°56'0 0.0
2016-Jul-18 07:31N 53°20' E 006°56'0 0.0
2016-Jul-18 06:31N 53°20' E 006°56'0 0.0
2016-Jul-18 05:25N 53°20' E 006°56'0 0.0
2016-Jul-18 04:28N 53°20' E 006°56'0 0.0
2016-Jul-18 03:31N 53°20' E 006°56'0 0.0
2016-Jul-18 02:31N 53°20' E 006°56'0 0.0
2016-Jul-18 01:31N 53°20' E 006°56'0 0.0
2016-Jul-18 00:32N 53°20' E 006°56'0 0.0
2016-Jul-17 23:31N 53°20' E 006°56'  
Track history (hours):
 
Tides and Currents Weather Stations Pressure Air Temp Water Temp Dewpoint Dewpoint Depression Visibility Wind Speed Wind Dir Waves Ship Positions

Robijn

Last reported at 2016-Jul-27 23:15 UTC. Time now 2016-Jul-28 08:33 UTC.
Position N 55°42' E 015°34'.

Length 90 m; draft 5.1 m.

Type: Cargo ship. MMSI: 245909000.

Date/timePositionNaut miles runAvg speedWind from/ knotsBaromVisibWave heightAir tempDewpointWater temp
2016-Jul-27 23:15N 55°42' E 015°34'7 9.4
2016-Jul-27 22:29N 55°38' E 015°23'9 9.3
2016-Jul-27 21:33N 55°34' E 015°10'9 9.2
2016-Jul-27 20:33N 55°29' E 014°56'9 9.3
2016-Jul-27 19:33N 55°24' E 014°42'9 9.3
2016-Jul-27 18:34N 55°17' E 014°31'9 9.4
2016-Jul-27 17:33N 55°11' E 014°18'9 9.4
2016-Jul-27 16:34N 55°11' E 014°02'9 9.0
2016-Jul-27 15:33N 55°11' E 013°46'9 8.9
2016-Jul-27 14:31N 55°12' E 013°30'8 8.8
2016-Jul-27 13:33N 55°13' E 013°15'9 8.8
2016-Jul-27 12:33N 55°14' E 012°60'9 8.7
2016-Jul-27 11:34N 55°17' E 012°45'7 7.2
2016-Jul-27 10:33N 55°23' E 012°39'9 8.6
2016-Jul-27 09:33N 55°31' E 012°42'9 8.5
2016-Jul-27 08:33N 55°40' E 012°41'9 8.9
2016-Jul-27 07:33N 55°49' E 012°41'9 8.7
2016-Jul-27 06:33N 55°57' E 012°40'8 8.3
2016-Jul-27 05:33N 56°05' E 012°34'10 9.5
2016-Jul-27 04:33N 56°11' E 012°21'27 8.9
2016-Jul-27 01:34N 56°34' E 011°57'10 9.6
2016-Jul-27 00:33N 56°43' E 011°53'45 1.3
2016-Jul-25 15:03N 56°45' E 010°30'0 0.0
2016-Jul-25 14:33N 56°45' E 010°30'0 0.0
2016-Jul-25 13:33N 56°45' E 010°30'0 0.0
2016-Jul-25 12:33N 56°45' E 010°30'0 0.0
2016-Jul-25 11:33N 56°45' E 010°30'0 0.0
2016-Jul-25 10:18N 56°45' E 010°30'0 0.0
2016-Jul-25 09:33N 56°45' E 010°30'0 0.0
2016-Jul-25 08:30N 56°45' E 010°30'0 0.0
2016-Jul-25 07:33N 56°45' E 010°31'3 2.8
2016-Jul-25 06:33N 56°45' E 010°36'7 7.3
2016-Jul-25 05:33N 56°47' E 010°49'7 6.5
2016-Jul-25 04:33N 56°50' E 010°59'7 7.0
2016-Jul-25 03:33N 56°55' E 011°08'7 7.5
2016-Jul-25 02:33N 57°00' E 011°18'8 7.6
2016-Jul-25 01:33N 57°06' E 011°26'8 7.6
2016-Jul-25 00:33N 57°13' E 011°33'9 9.4
2016-Jul-24 23:33N 57°22' E 011°27'9 8.8
2016-Jul-24 22:33N 57°30' E 011°19'9 9.2
2016-Jul-24 21:33N 57°36' E 011°06'9 9.3
2016-Jul-24 20:33N 57°42' E 010°54'9 9.1
2016-Jul-24 19:33N 57°47' E 010°40'1010.0
2016-Jul-24 18:33N 57°46' E 010°21'90 9.0
2016-Jul-24 08:33N 56°54' E 008°04'11 9.4
2016-Jul-24 07:26N 56°45' E 007°55'65 9.3
2016-Jul-24 00:26N 55°48' E 006°60'8 8.9
2016-Jul-23 23:33N 55°41' E 006°53'12 9.1
2016-Jul-23 22:15N 55°31' E 006°42'8 9.3
2016-Jul-23 21:25N 55°24' E 006°35'9 9.2
2016-Jul-23 20:29N 55°16' E 006°28'37 9.2
2016-Jul-23 16:30N 54°40' E 006°17'1110.2
2016-Jul-23 15:25N 54°29' E 006°18'910.2
2016-Jul-23 14:32N 54°20' E 006°17'1010.6
2016-Jul-23 13:33N 54°10' E 006°19'1110.6
2016-Jul-23 12:33N 53°59' E 006°19'1110.8
2016-Jul-23 11:33N 53°48' E 006°20'1010.3
2016-Jul-23 10:33N 53°38' E 006°21'9 9.3
2016-Jul-23 09:33N 53°35' E 006°36'9 9.1
2016-Jul-23 08:33N 53°30' E 006°49'1010.2
2016-Jul-23 07:33N 53°22' E 006°59'3 2.6
2016-Jul-23 06:32N 53°20' E 006°56'0 0.0
2016-Jul-23 04:26N 53°20' E 006°56'0 0.0
2016-Jul-23 03:32N 53°20' E 006°56'0 0.0
2016-Jul-23 02:26N 53°20' E 006°56'0 0.0
2016-Jul-23 01:32N 53°20' E 006°56'0 0.0
2016-Jul-23 00:32N 53°20' E 006°56'0 0.0
2016-Jul-22 23:32N 53°20' E 006°56'0 0.0
2016-Jul-22 22:32N 53°20' E 006°56'0 0.0
2016-Jul-22 21:32N 53°20' E 006°56'0 0.0
2016-Jul-22 20:32N 53°20' E 006°56'0 0.0
2016-Jul-22 19:32N 53°20' E 006°56'0 0.0
2016-Jul-22 18:32N 53°20' E 006°56'0 0.0
2016-Jul-22 17:32N 53°20' E 006°56'0 0.0
2016-Jul-22 16:32N 53°20' E 006°56'0 0.0
2016-Jul-22 15:32N 53°20' E 006°56'0 0.0
2016-Jul-22 14:32N 53°20' E 006°56'0 0.0
2016-Jul-22 13:32N 53°20' E 006°56'0 0.0
2016-Jul-22 12:29N 53°20' E 006°56'0 0.0
2016-Jul-22 11:32N 53°20' E 006°56'0 0.0
2016-Jul-22 10:32N 53°20' E 006°56'0 0.0
2016-Jul-22 09:32N 53°20' E 006°56'0 0.0
2016-Jul-22 08:32N 53°20' E 006°56'0 0.0
2016-Jul-22 07:32N 53°20' E 006°56'0 0.0
2016-Jul-22 04:29N 53°20' E 006°56'0 0.0
2016-Jul-22 03:32N 53°20' E 006°56'0 0.0
2016-Jul-22 02:32N 53°20' E 006°56'0 0.0
2016-Jul-22 01:32N 53°20' E 006°56'0 0.0
2016-Jul-22 00:32N 53°20' E 006°56'0 0.0
2016-Jul-21 23:32N 53°20' E 006°56'0 0.0
2016-Jul-21 22:32N 53°20' E 006°56'0 0.0
2016-Jul-21 21:32N 53°20' E 006°56'0 0.0
2016-Jul-21 20:32N 53°20' E 006°56'0 0.0
2016-Jul-21 19:32N 53°20' E 006°56'0 0.0
2016-Jul-21 18:32N 53°20' E 006°56'0 0.0
2016-Jul-21 17:32N 53°20' E 006°56'0 0.0
2016-Jul-21 16:32N 53°20' E 006°56'0 0.0
2016-Jul-21 15:32N 53°20' E 006°56'0 0.0
2016-Jul-21 14:32N 53°20' E 006°56'0 0.0
2016-Jul-21 13:32N 53°20' E 006°56'0 0.0
2016-Jul-21 12:32N 53°20' E 006°56'0 0.0
2016-Jul-21 11:32N 53°20' E 006°56'0 0.0
2016-Jul-21 10:32N 53°20' E 006°56'0 0.0
2016-Jul-21 09:32N 53°20' E 006°56'0 0.0
2016-Jul-21 08:32N 53°20' E 006°56'0 0.0
2016-Jul-21 07:32N 53°20' E 006°56'0 0.0
2016-Jul-21 06:32N 53°20' E 006°56'0 0.0
2016-Jul-21 05:32N 53°20' E 006°56'0 0.0
2016-Jul-21 04:29N 53°20' E 006°56'0 0.0
2016-Jul-21 03:32N 53°20' E 006°56'0 0.0
2016-Jul-21 02:32N 53°20' E 006°56'0 0.0
2016-Jul-21 01:32N 53°20' E 006°56'0 0.0
2016-Jul-21 00:32N 53°20' E 006°56'0 0.0
2016-Jul-20 23:32N 53°20' E 006°56'0 0.0
2016-Jul-20 22:32N 53°20' E 006°56'0 0.0
2016-Jul-20 21:32N 53°20' E 006°56'0 0.0
2016-Jul-20 20:32N 53°20' E 006°56'0 0.0
2016-Jul-20 19:32N 53°20' E 006°56'0 0.0
2016-Jul-20 18:32N 53°20' E 006°56'0 0.0
2016-Jul-20 17:32N 53°20' E 006°56'0 0.0
2016-Jul-20 16:32N 53°20' E 006°56'0 0.0
2016-Jul-20 15:32N 53°20' E 006°56'0 0.0
2016-Jul-20 14:31N 53°20' E 006°56'0 0.0
2016-Jul-20 13:28N 53°20' E 006°56'0 0.0
2016-Jul-20 12:31N 53°20' E 006°56'0 0.0
2016-Jul-20 11:31N 53°20' E 006°56'0 0.0
2016-Jul-20 10:31N 53°20' E 006°56'0 0.0
2016-Jul-20 09:31N 53°20' E 006°56'0 0.0
2016-Jul-20 08:31N 53°20' E 006°56'0 0.0
2016-Jul-20 07:31N 53°20' E 006°56'0 0.0
2016-Jul-20 06:31N 53°20' E 006°56'0 0.0
2016-Jul-20 05:31N 53°20' E 006°56'0 0.0
2016-Jul-20 04:31N 53°20' E 006°56'0 0.0
2016-Jul-20 03:31N 53°20' E 006°56'0 0.0
2016-Jul-20 02:28N 53°20' E 006°56'0 0.0
2016-Jul-20 01:31N 53°20' E 006°56'0 0.0
2016-Jul-20 00:31N 53°20' E 006°56'0 0.0
2016-Jul-19 23:31N 53°20' E 006°56'0 0.0
2016-Jul-19 22:32N 53°20' E 006°56'0 0.0
2016-Jul-19 21:31N 53°20' E 006°56'0 0.0
2016-Jul-19 20:31N 53°20' E 006°56'0 0.0
2016-Jul-19 19:31N 53°20' E 006°56'0 0.0
2016-Jul-19 18:31N 53°20' E 006°56'0 0.0
2016-Jul-19 17:25N 53°20' E 006°56'0 0.0
2016-Jul-19 16:31N 53°20' E 006°56'0 0.0
2016-Jul-19 15:31N 53°20' E 006°56'0 0.0
2016-Jul-19 14:31N 53°20' E 006°56'0 0.0
2016-Jul-19 13:31N 53°20' E 006°56'0 0.0
2016-Jul-19 12:28N 53°20' E 006°56'0 0.0
2016-Jul-19 11:31N 53°20' E 006°56'0 0.0
2016-Jul-19 10:31N 53°20' E 006°56'0 0.0
2016-Jul-19 09:31N 53°20' E 006°56'0 0.0
2016-Jul-19 08:31N 53°20' E 006°56'0 0.0
2016-Jul-19 07:31N 53°20' E 006°56'0 0.0
2016-Jul-19 04:22N 53°20' E 006°56'0 0.0
2016-Jul-19 03:28N 53°20' E 006°56'0 0.0
2016-Jul-19 02:31N 53°20' E 006°56'0 0.0
2016-Jul-19 01:32N 53°20' E 006°56'0 0.0
2016-Jul-19 00:31N 53°20' E 006°56'0 0.0
2016-Jul-18 23:31N 53°20' E 006°56'0 0.0
2016-Jul-18 22:31N 53°20' E 006°56'0 0.0
2016-Jul-18 21:31N 53°20' E 006°56'0 0.0
2016-Jul-18 20:31N 53°20' E 006°56'0 0.0
2016-Jul-18 19:31N 53°20' E 006°56'0 0.0
2016-Jul-18 18:26N 53°20' E 006°56'0 0.0
2016-Jul-18 17:29N 53°20' E 006°56'0 0.0
2016-Jul-18 16:29N 53°20' E 006°56'0 0.0
2016-Jul-18 15:29N 53°20' E 006°56'0 0.0
2016-Jul-18 14:23N 53°20' E 006°56'0 0.0
2016-Jul-18 13:32N 53°20' E 006°56'0 0.0
2016-Jul-18 12:23N 53°20' E 006°56'0 0.0
2016-Jul-18 11:31N 53°20' E 006°56'0 0.0
2016-Jul-18 10:31N 53°20' E 006°56'0 0.0
2016-Jul-18 09:31N 53°20' E 006°56'0 0.0
2016-Jul-18 08:31N 53°20' E 006°56'0 0.0
2016-Jul-18 07:31N 53°20' E 006°56'0 0.0
2016-Jul-18 06:31N 53°20' E 006°56'0 0.0
2016-Jul-18 05:25N 53°20' E 006°56'0 0.0
2016-Jul-18 04:28N 53°20' E 006°56'0 0.0
2016-Jul-18 03:31N 53°20' E 006°56'0 0.0
2016-Jul-18 02:31N 53°20' E 006°56'0 0.0
2016-Jul-18 01:31N 53°20' E 006°56'0 0.0
2016-Jul-18 00:32N 53°20' E 006°56'0 0.0
2016-Jul-17 23:31N 53°20' E 006°56'  

Dump ship's entire track history